createdAt,value
2023-02-15T00:00:24.344Z,2.20
2023-02-15T00:02:52.855Z,2.80
2023-02-15T00:05:21.207Z,2.47
2023-02-15T00:07:49.530Z,2.70
2023-02-15T00:10:19.109Z,2.40
2023-02-15T00:12:47.459Z,2.27
2023-02-15T00:15:15.914Z,2.30
2023-02-15T00:17:44.280Z,2.87
2023-02-15T00:20:12.872Z,2.63
2023-02-15T00:22:41.232Z,3.23
2023-02-15T00:25:09.755Z,3.60
2023-02-15T00:27:38.085Z,4.20
2023-02-15T00:30:07.784Z,2.80
2023-02-15T00:32:36.173Z,3.23
2023-02-15T00:35:04.612Z,3.40
2023-02-15T00:37:32.943Z,3.10
2023-02-15T00:40:01.342Z,2.60
2023-02-15T00:42:29.734Z,2.60
2023-02-15T00:44:58.061Z,2.57
2023-02-15T00:47:27.106Z,2.47
2023-02-15T00:49:55.454Z,2.70
2023-02-15T00:52:23.802Z,2.30
2023-02-15T00:54:52.261Z,3.00
2023-02-15T00:57:20.601Z,4.53
2023-02-15T00:59:48.993Z,3.40
2023-02-15T01:02:17.445Z,3.50
2023-02-15T01:04:45.927Z,3.67
2023-02-15T01:07:14.302Z,3.93
2023-02-15T01:09:42.678Z,3.50
2023-02-15T01:12:11.041Z,3.57
2023-02-15T01:14:39.383Z,5.00
2023-02-15T01:17:07.839Z,4.00
2023-02-15T01:19:36.614Z,3.47
2023-02-15T01:22:05.322Z,3.20
2023-02-15T01:24:33.919Z,3.40
2023-02-15T01:27:02.282Z,3.43
2023-02-15T01:29:30.633Z,4.17
2023-02-15T01:31:59.085Z,3.00
2023-02-15T01:34:27.525Z,3.70
2023-02-15T01:36:55.912Z,3.03
2023-02-15T01:39:24.352Z,3.80
2023-02-15T01:41:52.901Z,3.30
2023-02-15T01:44:59.481Z,2.60
2023-02-15T01:47:37.290Z,3.70
2023-02-15T01:50:21.144Z,11.30
2023-02-15T01:52:57.815Z,7.23
2023-02-15T01:55:28.861Z,5.00
2023-02-15T01:57:57.480Z,4.80
2023-02-15T02:00:26.004Z,3.67
2023-02-15T02:02:57.685Z,3.27
2023-02-15T02:05:26.894Z,4.80
2023-02-15T02:07:58.085Z,6.93
2023-02-15T02:10:27.837Z,9.50
2023-02-15T02:13:01.068Z,12.87
2023-02-15T02:15:42.625Z,7.70
2023-02-15T02:18:38.376Z,7.63
2023-02-15T02:21:28.419Z,6.13
2023-02-15T02:24:18.005Z,6.90
2023-02-15T02:27:22.467Z,6.17
2023-02-15T02:30:08.958Z,6.23
2023-02-15T02:33:09.104Z,7.87
2023-02-15T02:35:46.281Z,9.03
2023-02-15T02:38:29.442Z,8.43
2023-02-15T02:41:13.837Z,7.60
2023-02-15T02:44:04.862Z,7.20
2023-02-15T02:46:58.516Z,6.20
2023-02-15T02:49:35.821Z,6.37
2023-02-15T02:52:23.797Z,5.70
2023-02-15T02:54:52.411Z,5.67
2023-02-15T02:57:22.424Z,6.90
2023-02-15T02:59:53.109Z,6.90
2023-02-15T03:02:29.734Z,7.20
2023-02-15T03:05:05.460Z,7.50
2023-02-15T03:07:35.842Z,6.17
2023-02-15T03:10:07.224Z,6.27
2023-02-15T03:12:38.995Z,6.17
2023-02-15T03:15:21.251Z,7.27
2023-02-15T03:17:56.317Z,7.50
2023-02-15T03:20:36.097Z,7.70
2023-02-15T03:23:09.157Z,8.03
2023-02-15T03:25:43.133Z,7.07
2023-02-15T03:28:17.547Z,7.10
2023-02-15T03:30:51.029Z,8.40
2023-02-15T03:33:20.938Z,6.90
2023-02-15T03:36:09.481Z,9.40
2023-02-15T03:39:01.016Z,8.67
2023-02-15T03:41:36.045Z,10.20
2023-02-15T03:44:15.474Z,9.00
2023-02-15T03:46:58.849Z,8.40
2023-02-15T03:49:30.649Z,8.20
2023-02-15T03:52:01.595Z,8.43
2023-02-15T03:54:45.080Z,8.43
2023-02-15T03:57:36.067Z,8.20
2023-02-15T04:00:45.482Z,9.20
2023-02-15T04:04:01.403Z,7.70
2023-02-15T04:06:29.757Z,7.20
2023-02-15T04:09:16.586Z,8.40
2023-02-15T04:11:44.927Z,8.33
2023-02-15T04:14:31.912Z,8.23
2023-02-15T04:17:00.267Z,8.40
2023-02-15T04:19:47.237Z,7.57
2023-02-15T04:22:34.105Z,8.70
2023-02-15T04:25:14.581Z,8.50
2023-02-15T04:27:52.492Z,9.60
2023-02-15T04:30:24.677Z,9.80
2023-02-15T04:32:53.373Z,9.43
2023-02-15T04:35:22.125Z,11.20
2023-02-15T04:37:50.488Z,14.07
2023-02-15T04:40:19.938Z,15.20
2023-02-15T04:42:51.009Z,16.80
2023-02-15T04:45:19.904Z,12.80
2023-02-15T04:47:48.280Z,12.77
2023-02-15T04:50:16.752Z,14.30
2023-02-15T04:52:45.087Z,13.93
2023-02-15T04:55:13.511Z,19.83
2023-02-15T04:57:42.172Z,21.50
2023-02-15T05:00:10.972Z,12.30
2023-02-15T05:02:39.473Z,13.50
2023-02-15T05:05:09.024Z,12.55
2023-02-15T05:07:37.366Z,12.73
2023-02-15T05:10:06.003Z,12.10
2023-02-15T05:12:34.472Z,11.25
2023-02-15T05:15:02.814Z,12.85
2023-02-15T05:17:31.216Z,9.77
2023-02-15T05:19:59.605Z,11.35
2023-02-15T05:22:28.025Z,10.70
2023-02-15T05:25:28.644Z,10.93
2023-02-15T05:28:15.529Z,19.55
2023-02-15T05:30:44.805Z,27.85
2023-02-15T05:33:13.295Z,25.80
2023-02-15T05:35:42.072Z,28.48
2023-02-15T05:38:10.667Z,21.70
2023-02-15T05:40:39.046Z,26.73
2023-02-15T05:43:07.428Z,28.35
2023-02-15T05:45:35.812Z,25.52
2023-02-15T05:48:04.261Z,26.08
2023-02-15T05:50:32.669Z,19.67
2023-02-15T05:53:01.224Z,17.38
2023-02-15T05:55:29.598Z,15.20
2023-02-15T05:57:57.937Z,14.43
2023-02-15T06:00:27.280Z,11.85
2023-02-15T06:02:55.629Z,14.20
2023-02-15T06:05:24.115Z,20.27
2023-02-15T06:07:52.557Z,10.00
2023-02-15T06:10:21.087Z,19.35
2023-02-15T06:12:49.434Z,17.90
2023-02-15T06:15:18.037Z,13.55
2023-02-15T06:17:46.464Z,8.00
2023-02-15T06:20:15.625Z,9.38
2023-02-15T06:22:44.130Z,10.50
2023-02-15T06:25:13.002Z,10.90
2023-02-15T06:27:44.526Z,10.05
2023-02-15T06:30:14.052Z,10.90
2023-02-15T06:32:42.798Z,10.70
2023-02-15T06:35:11.257Z,11.00
2023-02-15T06:37:39.811Z,14.57
2023-02-15T06:40:10.230Z,36.38
2023-02-15T06:42:38.642Z,39.47
2023-02-15T06:45:08.530Z,18.92
2023-02-15T06:47:37.289Z,14.57
2023-02-15T06:50:09.540Z,13.50
2023-02-15T06:52:38.002Z,14.73
2023-02-15T06:55:07.169Z,23.65
2023-02-15T06:57:35.705Z,31.52
2023-02-15T07:00:06.542Z,20.67
2023-02-15T07:02:35.066Z,17.70
2023-02-15T07:05:03.564Z,15.27
2023-02-15T07:07:32.033Z,15.63
2023-02-15T07:10:00.361Z,21.25
2023-02-15T07:12:44.369Z,21.02
2023-02-15T07:15:15.340Z,19.45
2023-02-15T07:17:44.243Z,16.88
2023-02-15T07:20:16.104Z,16.63
2023-02-15T07:22:44.700Z,16.10
2023-02-15T07:25:14.263Z,15.10
2023-02-15T07:27:43.112Z,18.63
2023-02-15T07:30:14.780Z,27.20
2023-02-15T07:33:05.280Z,17.33
2023-02-15T07:35:34.830Z,15.77
2023-02-15T07:38:03.429Z,18.60
2023-02-15T07:40:31.918Z,14.30
2023-02-15T07:43:00.901Z,13.70
2023-02-15T07:45:29.271Z,17.17
2023-02-15T07:47:57.656Z,17.27
2023-02-15T07:50:26.141Z,16.13
2023-02-15T07:52:54.568Z,19.17
2023-02-15T07:55:23.334Z,33.10
2023-02-15T07:57:53.356Z,22.65
2023-02-15T08:00:26.535Z,22.88
2023-02-15T08:03:15.465Z,21.73
2023-02-15T08:05:46.441Z,20.17
2023-02-15T08:08:33.190Z,18.10
2023-02-15T08:11:19.866Z,18.42
2023-02-15T08:14:01.128Z,17.45
2023-02-15T08:16:37.242Z,20.83
2023-02-15T08:19:07.161Z,21.83
2023-02-15T08:21:38.252Z,47.85
2023-02-15T08:24:08.653Z,30.00
2023-02-15T08:26:38.551Z,20.38
2023-02-15T08:29:11.244Z,20.25
2023-02-15T08:31:40.141Z,17.05
2023-02-15T08:34:09.346Z,19.77
2023-02-15T08:36:37.774Z,16.90
2023-02-15T08:39:07.929Z,17.67
2023-02-15T08:41:38.511Z,23.55
2023-02-15T08:44:09.169Z,21.17
2023-02-15T08:46:40.532Z,25.75
2023-02-15T08:49:09.598Z,38.42
2023-02-15T08:51:40.165Z,31.33
2023-02-15T08:54:11.288Z,27.23
2023-02-15T08:56:41.875Z,26.40
2023-02-15T08:59:23.920Z,21.67
2023-02-15T09:01:54.025Z,26.90
2023-02-15T09:04:22.881Z,36.08
2023-02-15T09:06:52.430Z,32.03
2023-02-15T09:09:21.829Z,30.70
2023-02-15T09:11:58.780Z,22.73
2023-02-15T09:14:28.459Z,22.70
2023-02-15T09:16:57.270Z,28.75
2023-02-15T09:19:26.680Z,27.15
2023-02-15T09:21:55.638Z,33.38
2023-02-15T09:24:24.447Z,24.77
2023-02-15T09:26:52.911Z,29.48
2023-02-15T09:29:21.749Z,28.35
2023-02-15T09:31:52.533Z,30.20
2023-02-15T09:34:23.229Z,43.92
2023-02-15T09:36:52.740Z,58.53
2023-02-15T09:39:25.384Z,57.40
2023-02-15T09:42:35.023Z,36.03
2023-02-15T09:45:22.138Z,29.40
2023-02-15T09:48:17.816Z,27.95
2023-02-15T09:51:27.329Z,29.08
2023-02-15T09:54:12.955Z,29.65
2023-02-15T09:57:07.255Z,24.95
2023-02-15T09:59:47.602Z,25.35
2023-02-15T10:02:45.286Z,24.77
2023-02-15T10:05:33.879Z,22.27
2023-02-15T10:08:05.243Z,22.13
2023-02-15T10:10:43.173Z,22.10
2023-02-15T10:13:32.833Z,23.75
2023-02-15T10:16:29.946Z,25.15
2023-02-15T10:19:13.033Z,23.05
2023-02-15T10:22:07.702Z,20.98
2023-02-15T10:24:44.668Z,25.70
2023-02-15T10:27:23.482Z,20.40
2023-02-15T10:30:23.952Z,21.25
2023-02-15T10:33:11.161Z,18.40
2023-02-15T10:36:18.000Z,20.65
2023-02-15T10:39:09.493Z,23.13
2023-02-15T10:41:49.331Z,20.85
2023-02-15T10:44:39.517Z,21.67
2023-02-15T10:47:28.017Z,23.35
2023-02-15T10:50:28.989Z,18.75
2023-02-15T10:53:23.556Z,17.75
2023-02-15T10:56:10.104Z,18.60
2023-02-15T10:59:12.042Z,19.77
2023-02-15T11:01:53.904Z,24.33
2023-02-15T11:04:41.547Z,17.30
2023-02-15T11:07:47.918Z,23.13
2023-02-15T11:10:18.185Z,19.50
2023-02-15T11:12:48.216Z,21.88
2023-02-15T11:16:04.019Z,21.38
2023-02-15T11:18:53.568Z,24.35
2023-02-15T11:22:01.897Z,22.67
2023-02-15T11:24:35.726Z,24.77
2023-02-15T11:27:21.772Z,22.13
2023-02-15T11:29:53.059Z,23.67
2023-02-15T11:32:31.122Z,23.10
2023-02-15T11:35:05.371Z,28.45
2023-02-15T11:37:52.274Z,25.25
2023-02-15T11:40:28.801Z,22.38
2023-02-15T11:43:09.133Z,22.80
2023-02-15T11:45:37.882Z,24.73
2023-02-15T11:48:14.153Z,22.15
2023-02-15T11:50:43.681Z,17.92
2023-02-15T11:53:22.866Z,18.98
2023-02-15T11:55:52.986Z,18.95
2023-02-15T11:58:46.809Z,21.27
2023-02-15T12:01:34.126Z,19.55
2023-02-15T12:04:06.928Z,22.50
2023-02-15T12:06:40.552Z,16.50
2023-02-15T12:09:41.326Z,17.98
2023-02-15T12:12:35.228Z,18.48
2023-02-15T12:15:14.409Z,16.50
2023-02-15T12:17:59.328Z,19.05
2023-02-15T12:20:32.975Z,17.83
2023-02-15T12:23:13.781Z,17.42
2023-02-15T12:25:57.616Z,17.20
2023-02-15T12:28:48.325Z,16.75
2023-02-15T12:31:26.967Z,15.32
2023-02-15T12:33:59.840Z,18.55
2023-02-15T12:36:46.232Z,19.08
2023-02-15T12:39:14.578Z,20.85
2023-02-15T12:42:05.244Z,19.80
2023-02-15T12:44:36.221Z,21.23
2023-02-15T12:47:07.655Z,20.90
2023-02-15T12:49:40.052Z,20.20
2023-02-15T12:52:21.825Z,18.23
2023-02-15T12:54:51.142Z,21.27
2023-02-15T12:57:33.100Z,18.63
2023-02-15T13:00:02.687Z,19.95
2023-02-15T13:02:53.501Z,22.88
2023-02-15T13:05:45.355Z,22.50
2023-02-15T13:08:16.460Z,24.50
2023-02-15T13:11:08.873Z,23.65
2023-02-15T13:13:53.757Z,20.60
2023-02-15T13:16:39.348Z,22.00
2023-02-15T13:19:15.621Z,18.80
2023-02-15T13:21:47.295Z,22.58
2023-02-15T13:24:57.820Z,24.73
2023-02-15T13:27:37.262Z,20.75
2023-02-15T13:30:33.966Z,25.02
2023-02-15T13:33:07.069Z,26.35
2023-02-15T13:36:12.282Z,21.55
2023-02-15T13:39:04.473Z,20.92
2023-02-15T13:41:57.400Z,18.50
2023-02-15T13:44:58.790Z,18.42
2023-02-15T13:47:45.753Z,21.08
2023-02-15T13:50:52.721Z,19.45
2023-02-15T13:53:29.992Z,16.42
2023-02-15T13:56:09.807Z,21.02
2023-02-15T13:59:05.781Z,20.13
2023-02-15T14:01:45.405Z,18.50
2023-02-15T14:04:26.957Z,20.35
2023-02-15T14:07:01.231Z,19.85
2023-02-15T14:09:32.684Z,18.75
2023-02-15T14:12:25.722Z,18.27
2023-02-15T14:15:16.705Z,24.42
2023-02-15T14:18:09.159Z,20.13
2023-02-15T14:20:53.579Z,24.35
2023-02-15T14:23:46.080Z,21.02
2023-02-15T14:26:48.434Z,20.40
2023-02-15T14:29:36.145Z,21.85
2023-02-15T14:32:17.763Z,21.98
2023-02-15T14:35:03.949Z,25.38
2023-02-15T14:37:38.359Z,24.98
2023-02-15T14:40:50.040Z,21.55
2023-02-15T14:43:33.443Z,23.48
2023-02-15T14:46:24.728Z,21.38
2023-02-15T14:48:58.428Z,35.58
2023-02-15T14:51:45.044Z,23.13
2023-02-15T14:54:34.969Z,19.55
2023-02-15T14:57:03.374Z,17.55
2023-02-15T14:59:59.134Z,26.30
2023-02-15T15:02:30.342Z,33.05
2023-02-15T15:05:12.198Z,17.10
2023-02-15T15:08:01.804Z,23.35
2023-02-15T15:10:40.399Z,24.60
2023-02-15T15:13:54.505Z,16.00
2023-02-15T15:16:32.068Z,17.50
2023-02-15T15:19:01.497Z,18.65
2023-02-15T15:21:51.131Z,17.60
2023-02-15T15:24:41.033Z,30.77
2023-02-15T15:27:47.251Z,29.35
2023-02-15T15:30:15.705Z,30.00
2023-02-15T15:32:56.292Z,53.80
2023-02-15T15:35:43.117Z,23.15
2023-02-15T15:39:05.002Z,17.73
2023-02-15T15:41:50.354Z,18.38
2023-02-15T15:45:01.123Z,29.27
2023-02-15T15:48:06.126Z,22.35
2023-02-15T15:50:35.940Z,18.02
2023-02-15T15:53:05.690Z,33.25
2023-02-15T15:55:35.765Z,18.00
2023-02-15T15:58:08.005Z,17.35
2023-02-15T16:00:51.080Z,24.45
2023-02-15T16:03:30.061Z,20.95
2023-02-15T16:06:02.306Z,18.40
2023-02-15T16:08:37.118Z,26.77
2023-02-15T16:11:24.554Z,21.98
2023-02-15T16:13:54.761Z,17.92
2023-02-15T16:16:29.847Z,24.70
2023-02-15T16:19:01.288Z,38.13
2023-02-15T16:21:37.118Z,20.13
2023-02-15T16:24:41.900Z,25.83
2023-02-15T16:27:37.715Z,17.70
2023-02-15T16:30:27.659Z,16.30
2023-02-15T16:33:08.179Z,17.05
2023-02-15T16:35:39.147Z,27.83
2023-02-15T16:38:10.968Z,18.15
2023-02-15T16:40:59.476Z,17.65
2023-02-15T16:43:30.764Z,20.75
2023-02-15T16:46:08.048Z,17.00
2023-02-15T16:48:40.612Z,17.13
2023-02-15T16:51:10.690Z,17.88
2023-02-15T16:53:39.708Z,17.10
2023-02-15T16:56:08.452Z,19.38
2023-02-15T16:58:44.448Z,17.23
2023-02-15T17:01:15.961Z,20.98
2023-02-15T17:03:44.974Z,17.02
2023-02-15T17:06:28.257Z,23.70
2023-02-15T17:09:07.716Z,18.80
2023-02-15T17:11:44.075Z,19.15
2023-02-15T17:14:16.210Z,17.77
2023-02-15T17:16:51.164Z,21.17
2023-02-15T17:19:28.271Z,18.85
2023-02-15T17:22:03.084Z,15.68
2023-02-15T17:24:42.269Z,16.48
2023-02-15T17:27:22.946Z,20.27
2023-02-15T17:29:57.143Z,14.60
2023-02-15T17:32:35.240Z,14.45
2023-02-15T17:35:17.209Z,14.50
2023-02-15T17:37:50.610Z,20.30
2023-02-15T17:40:23.833Z,15.10
2023-02-15T17:42:52.627Z,13.02
2023-02-15T17:45:22.262Z,16.90
2023-02-15T17:47:52.089Z,13.52
2023-02-15T17:50:25.034Z,18.45
2023-02-15T17:52:54.815Z,14.88
2023-02-15T17:55:36.690Z,14.90
2023-02-15T17:58:13.629Z,16.33
2023-02-15T18:01:06.534Z,14.85
2023-02-15T18:04:10.859Z,17.70
2023-02-15T18:07:00.322Z,12.20
2023-02-15T18:09:47.280Z,15.68
2023-02-15T18:12:24.589Z,13.95
2023-02-15T18:14:56.397Z,13.20
2023-02-15T18:17:46.784Z,12.98
2023-02-15T18:20:25.590Z,14.80
2023-02-15T18:22:55.071Z,14.88
2023-02-15T18:25:26.209Z,13.65
2023-02-15T18:27:55.520Z,16.55
2023-02-15T18:30:27.648Z,16.83
2023-02-15T18:32:58.613Z,16.47
2023-02-15T18:35:31.976Z,17.13
2023-02-15T18:38:01.816Z,15.17
2023-02-15T18:40:31.950Z,12.77
2023-02-15T18:43:00.360Z,14.10
2023-02-15T18:45:34.088Z,13.80
2023-02-15T18:48:02.702Z,14.00
2023-02-15T18:50:35.785Z,14.07
2023-02-15T18:53:05.904Z,15.43
2023-02-15T18:55:36.184Z,16.05
2023-02-15T18:58:04.653Z,16.10
2023-02-15T19:00:36.124Z,15.95
2023-02-15T19:03:04.747Z,14.70
2023-02-15T19:05:34.606Z,14.50
2023-02-15T19:08:04.114Z,12.10
2023-02-15T19:10:34.055Z,13.20
2023-02-15T19:13:02.531Z,13.70
2023-02-15T19:15:31.865Z,14.77
2023-02-15T19:18:00.266Z,10.83
2023-02-15T19:20:33.777Z,12.97
2023-02-15T19:23:03.513Z,12.13
2023-02-15T19:25:35.079Z,13.83
2023-02-15T19:28:17.263Z,11.30
2023-02-15T19:30:45.894Z,12.40
2023-02-15T19:33:20.411Z,13.90
2023-02-15T19:35:54.821Z,11.67
2023-02-15T19:38:29.929Z,13.47
2023-02-15T19:41:05.390Z,12.30
2023-02-15T19:43:34.831Z,11.13
2023-02-15T19:46:03.608Z,10.87
2023-02-15T19:48:32.251Z,10.80
2023-02-15T19:51:00.764Z,12.43
2023-02-15T19:53:30.226Z,13.77
2023-02-15T19:55:58.639Z,12.30
2023-02-15T19:58:27.177Z,13.13
2023-02-15T20:00:55.587Z,11.87
2023-02-15T20:03:24.016Z,14.33
2023-02-15T20:05:52.485Z,13.43
2023-02-15T20:08:23.680Z,13.00
2023-02-15T20:10:52.237Z,12.90
2023-02-15T20:13:21.740Z,12.63
2023-02-15T20:15:51.668Z,12.10
2023-02-15T20:18:22.359Z,12.23
2023-02-15T20:20:56.224Z,12.60
2023-02-15T20:23:31.413Z,13.60
2023-02-15T20:26:01.837Z,13.00
2023-02-15T20:28:32.418Z,14.00
2023-02-15T20:31:01.608Z,14.33
2023-02-15T20:33:30.211Z,13.57
2023-02-15T20:35:59.686Z,13.63
2023-02-15T20:38:31.263Z,15.33
2023-02-15T20:41:20.342Z,15.00
2023-02-15T20:43:49.367Z,14.90
2023-02-15T20:46:17.789Z,16.30
2023-02-15T20:48:46.169Z,17.50
2023-02-15T20:51:22.902Z,15.27
2023-02-15T20:53:51.360Z,15.63
2023-02-15T20:56:22.592Z,15.80
2023-02-15T20:58:52.155Z,15.07
2023-02-15T21:01:20.823Z,17.60
2023-02-15T21:03:49.629Z,18.10
2023-02-15T21:06:18.721Z,17.80
2023-02-15T21:08:47.183Z,18.23
2023-02-15T21:11:21.844Z,17.13
2023-02-15T21:13:51.567Z,17.07
2023-02-15T21:16:20.231Z,18.10
2023-02-15T21:18:48.736Z,18.90
2023-02-15T21:21:24.550Z,17.20
2023-02-15T21:23:54.596Z,16.20
2023-02-15T21:26:25.268Z,16.60
2023-02-15T21:28:53.912Z,15.73
2023-02-15T21:31:27.930Z,16.50
2023-02-15T21:33:56.402Z,15.83
2023-02-15T21:36:26.105Z,13.33
2023-02-15T21:38:54.704Z,12.13
2023-02-15T21:41:43.139Z,13.50
2023-02-15T21:44:40.526Z,13.00
2023-02-15T21:47:50.865Z,13.10
2023-02-15T21:50:40.724Z,12.10
2023-02-15T21:53:12.943Z,12.17
2023-02-15T21:55:41.446Z,9.27
2023-02-15T21:58:24.003Z,11.53
2023-02-15T22:00:55.605Z,9.37
2023-02-15T22:03:31.162Z,11.20
2023-02-15T22:05:59.714Z,10.90
2023-02-15T22:08:28.107Z,11.63
2023-02-15T22:10:57.616Z,10.53
2023-02-15T22:13:36.241Z,10.30
2023-02-15T22:16:04.888Z,8.87
2023-02-15T22:18:35.010Z,9.33
2023-02-15T22:21:05.157Z,11.60
2023-02-15T22:23:33.692Z,11.90
2023-02-15T22:26:09.525Z,11.80
2023-02-15T22:28:40.959Z,10.03
2023-02-15T22:31:14.918Z,8.90
2023-02-15T22:33:45.525Z,8.83
2023-02-15T22:36:27.539Z,9.00
2023-02-15T22:38:56.408Z,8.53
2023-02-15T22:41:31.018Z,7.70
2023-02-15T22:43:59.530Z,8.37
2023-02-15T22:46:28.231Z,7.70
2023-02-15T22:48:56.649Z,7.20
2023-02-15T22:51:26.438Z,7.47
2023-02-15T22:53:54.969Z,7.03
2023-02-15T22:56:31.929Z,7.70
2023-02-15T22:59:06.898Z,8.70
2023-02-15T23:01:37.520Z,6.90
2023-02-15T23:04:06.254Z,8.23
2023-02-15T23:06:35.716Z,6.90
2023-02-15T23:09:04.487Z,6.93
2023-02-15T23:11:32.932Z,6.87
2023-02-15T23:14:03.804Z,7.23
2023-02-15T23:16:36.038Z,8.03
2023-02-15T23:19:07.740Z,7.60
2023-02-15T23:21:36.773Z,7.73
2023-02-15T23:24:30.585Z,7.10
2023-02-15T23:27:20.031Z,7.67
2023-02-15T23:29:49.165Z,7.37
2023-02-15T23:32:18.498Z,6.90
2023-02-15T23:34:46.985Z,7.67
2023-02-15T23:37:16.606Z,6.60
2023-02-15T23:40:03.295Z,7.70
2023-02-15T23:42:34.487Z,8.10
2023-02-15T23:45:03.771Z,8.43
2023-02-15T23:47:53.778Z,9.40
2023-02-15T23:50:28.631Z,9.00
2023-02-15T23:52:57.830Z,8.93
2023-02-15T23:55:36.273Z,8.37
2023-02-15T23:58:14.553Z,8.10
